Mtl — 6YSU2 — position and weather

sailwx.info

Track history (hours):
 
Tides and Currents Weather Stations Pressure Air Temp Water Temp Dewpoint Dewpoint Depression Visibility Wind Speed Wind Dir Waves Ship Positions

Mtl

Last reported at 2018-Jun-19 16:27 UTC. Time now 2018-Jun-21 23:48 UTC.
Position N 32°16' W 080°44'.

Length 34 m; draft 0.1 m.

Type: Pleasure craft. MMSI: 339513000.

Date/timePositionNaut miles runAvg speedWind from/ knotsBaromVisibWave heightAir tempDewpointWater temp
2018-Jun-19 16:27N 32°16' W 080°44'4 7.6
2018-Jun-19 15:58N 32°13' W 080°46'5 9.7
2018-Jun-19 15:26N 32°09' W 080°49'1 0.0
2018-Jun-17 17:41N 32°08' W 080°49'1 4.1
2018-Jun-17 17:30N 32°09' W 080°50'4 7.6
2018-Jun-17 17:00N 32°08' W 080°54'3 5.6
2018-Jun-17 16:29N 32°05' W 080°56'4 8.0
2018-Jun-17 16:00N 32°06' W 081°00'4 6.7
2018-Jun-17 15:22N 32°05' W 081°05'0 0.0
2018-Jun-17 14:43N 32°05' W 081°05'0 0.0
2018-Jun-17 14:10N 32°05' W 081°05'0 0.0
2018-Jun-17 13:43N 32°05' W 081°05'0 0.0
2018-Jun-17 13:28N 32°05' W 081°05'0 0.0
2018-Jun-17 12:04N 32°05' W 081°05'0 0.1
2018-Jun-17 11:58N 32°05' W 081°05'0 0.0
2018-Jun-17 11:28N 32°05' W 081°05'0 0.0
2018-Jun-17 10:52N 32°05' W 081°05'0 0.0
2018-Jun-17 07:33N 32°05' W 081°05'0 0.0
2018-Jun-17 06:40N 32°05' W 081°05'0 0.0
2018-Jun-17 05:45N 32°05' W 081°05'0 0.0
2018-Jun-17 05:22N 32°05' W 081°05'0 0.0
2018-Jun-17 04:40N 32°05' W 081°05'0 0.0
2018-Jun-17 03:42N 32°05' W 081°05'0 0.0
2018-Jun-17 02:40N 32°05' W 081°05'0 0.0
2018-Jun-17 01:21N 32°05' W 081°05'0 0.0
2018-Jun-17 00:47N 32°05' W 081°05'0 0.0
2018-Jun-16 23:48N 32°05' W 081°05'0 0.0
2018-Jun-16 23:19N 32°05' W 081°05'0 0.0
2018-Jun-16 22:25N 32°05' W 081°05'0 0.0
2018-Jun-16 21:53N 32°05' W 081°05'0 0.0
2018-Jun-16 21:23N 32°05' W 081°05'0 0.0
2018-Jun-16 20:42N 32°05' W 081°05'0 0.0
2018-Jun-16 20:30N 32°05' W 081°05'0 0.0
2018-Jun-16 19:50N 32°05' W 081°05'0 0.0
2018-Jun-16 19:28N 32°05' W 081°05'0 0.0
2018-Jun-16 18:34N 32°05' W 081°05'0 0.0
2018-Jun-16 17:16N 32°05' W 081°05'0 0.0
2018-Jun-16 16:37N 32°05' W 081°05'0 0.0
2018-Jun-16 15:13N 32°05' W 081°05'0 0.0
2018-Jun-16 14:48N 32°05' W 081°05'0 0.0
2018-Jun-16 14:27N 32°05' W 081°05'0 0.0
2018-Jun-16 14:00N 32°05' W 081°05'0 0.0
2018-Jun-16 13:28N 32°05' W 081°05'0 0.0
2018-Jun-16 12:41N 32°05' W 081°05'0 0.0
2018-Jun-16 11:14N 32°05' W 081°05'0 0.0
2018-Jun-16 10:44N 32°05' W 081°05'0 0.0
2018-Jun-16 10:21N 32°05' W 081°05'0 0.0
2018-Jun-16 10:00N 32°05' W 081°05'0 0.0
2018-Jun-16 09:30N 32°05' W 081°05'0 0.0
2018-Jun-16 08:57N 32°05' W 081°05'0 0.0
2018-Jun-16 08:24N 32°05' W 081°05'0 0.0
2018-Jun-16 07:07N 32°05' W 081°05'0 0.0
2018-Jun-16 06:58N 32°05' W 081°05'0 0.0
2018-Jun-16 06:28N 32°05' W 081°05'0 0.0
2018-Jun-16 05:58N 32°05' W 081°05'0 0.0
2018-Jun-16 05:28N 32°05' W 081°05'0 0.0
2018-Jun-16 04:49N 32°05' W 081°05'0 0.0
2018-Jun-16 00:32N 32°05' W 081°05'0 0.0
2018-Jun-16 00:29N 32°05' W 081°05'0 0.0
2018-Jun-15 23:53N 32°05' W 081°05'0 0.0
2018-Jun-15 23:14N 32°05' W 081°05'0 0.0
2018-Jun-15 20:36N 32°05' W 081°05'0 0.0
2018-Jun-15 19:49N 32°05' W 081°05'0 0.0
2018-Jun-15 17:24N 32°05' W 081°05'0 0.0
2018-Jun-15 17:00N 32°05' W 081°05'0 0.0
2018-Jun-15 16:27N 32°05' W 081°05'0 0.0
2018-Jun-15 15:51N 32°05' W 081°05'0 0.0
2018-Jun-15 15:30N 32°05' W 081°05'0 0.0
2018-Jun-15 14:21N 32°05' W 081°05'0 0.0
2018-Jun-15 14:00N 32°05' W 081°05'0 0.0
2018-Jun-15 13:30N 32°05' W 081°05'0 0.0
2018-Jun-15 12:50N 32°05' W 081°05'0 0.0
2018-Jun-15 12:01N 32°05' W 081°05'0 0.0
2018-Jun-15 11:55N 32°05' W 081°05'0 0.0
2018-Jun-15 10:49N 32°05' W 081°05'0 0.0
2018-Jun-15 10:19N 32°05' W 081°05'0 0.0
2018-Jun-15 09:49N 32°05' W 081°05'0 0.0
2018-Jun-15 09:16N 32°05' W 081°05'0 0.0
2018-Jun-15 08:31N 32°05' W 081°05'0 0.0
2018-Jun-15 08:10N 32°05' W 081°05'0 0.0
2018-Jun-15 05:04N 32°05' W 081°05'0 0.0
2018-Jun-15 04:46N 32°05' W 081°05'0 0.0
2018-Jun-15 03:19N 32°05' W 081°05'0 0.0
2018-Jun-15 02:32N 32°05' W 081°05'0 0.0
2018-Jun-15 02:29N 32°05' W 081°05'0 0.0
2018-Jun-15 00:28N 32°05' W 081°05'0 0.0
2018-Jun-14 21:30N 32°05' W 081°05'0 0.0
2018-Jun-14 20:56N 32°05' W 081°05'0 0.0
2018-Jun-14 20:27N 32°05' W 081°05'0 0.0
2018-Jun-14 20:00N 32°05' W 081°05'1 2.7
2018-Jun-14 19:29N 32°05' W 081°04'4 7.6
2018-Jun-14 19:01N 32°05' W 080°59'4 8.4
2018-Jun-14 18:30N 32°02' W 080°55'4 8.5
2018-Jun-14 18:00N 32°02' W 080°50'5 9.6
2018-Jun-14 17:30N 31°59' W 080°46'510.0
2018-Jun-14 17:00N 31°55' W 080°44'  
Track history (hours):
 
Tides and Currents Weather Stations Pressure Air Temp Water Temp Dewpoint Dewpoint Depression Visibility Wind Speed Wind Dir Waves Ship Positions

Mtl

Last reported at 2018-Jun-19 16:27 UTC. Time now 2018-Jun-21 23:48 UTC.
Position N 32°16' W 080°44'.

Length 34 m; draft 0.1 m.

Type: Pleasure craft. MMSI: 339513000.

Date/timePositionNaut miles runAvg speedWind from/ knotsBaromVisibWave heightAir tempDewpointWater temp
2018-Jun-19 16:27N 32°16' W 080°44'4 7.6
2018-Jun-19 15:58N 32°13' W 080°46'5 9.7
2018-Jun-19 15:26N 32°09' W 080°49'1 0.0
2018-Jun-17 17:41N 32°08' W 080°49'1 4.1
2018-Jun-17 17:30N 32°09' W 080°50'4 7.6
2018-Jun-17 17:00N 32°08' W 080°54'3 5.6
2018-Jun-17 16:29N 32°05' W 080°56'4 8.0
2018-Jun-17 16:00N 32°06' W 081°00'4 6.7
2018-Jun-17 15:22N 32°05' W 081°05'0 0.0
2018-Jun-17 14:43N 32°05' W 081°05'0 0.0
2018-Jun-17 14:10N 32°05' W 081°05'0 0.0
2018-Jun-17 13:43N 32°05' W 081°05'0 0.0
2018-Jun-17 13:28N 32°05' W 081°05'0 0.0
2018-Jun-17 12:04N 32°05' W 081°05'0 0.1
2018-Jun-17 11:58N 32°05' W 081°05'0 0.0
2018-Jun-17 11:28N 32°05' W 081°05'0 0.0
2018-Jun-17 10:52N 32°05' W 081°05'0 0.0
2018-Jun-17 07:33N 32°05' W 081°05'0 0.0
2018-Jun-17 06:40N 32°05' W 081°05'0 0.0
2018-Jun-17 05:45N 32°05' W 081°05'0 0.0
2018-Jun-17 05:22N 32°05' W 081°05'0 0.0
2018-Jun-17 04:40N 32°05' W 081°05'0 0.0
2018-Jun-17 03:42N 32°05' W 081°05'0 0.0
2018-Jun-17 02:40N 32°05' W 081°05'0 0.0
2018-Jun-17 01:21N 32°05' W 081°05'0 0.0
2018-Jun-17 00:47N 32°05' W 081°05'0 0.0
2018-Jun-16 23:48N 32°05' W 081°05'0 0.0
2018-Jun-16 23:19N 32°05' W 081°05'0 0.0
2018-Jun-16 22:25N 32°05' W 081°05'0 0.0
2018-Jun-16 21:53N 32°05' W 081°05'0 0.0
2018-Jun-16 21:23N 32°05' W 081°05'0 0.0
2018-Jun-16 20:42N 32°05' W 081°05'0 0.0
2018-Jun-16 20:30N 32°05' W 081°05'0 0.0
2018-Jun-16 19:50N 32°05' W 081°05'0 0.0
2018-Jun-16 19:28N 32°05' W 081°05'0 0.0
2018-Jun-16 18:34N 32°05' W 081°05'0 0.0
2018-Jun-16 17:16N 32°05' W 081°05'0 0.0
2018-Jun-16 16:37N 32°05' W 081°05'0 0.0
2018-Jun-16 15:13N 32°05' W 081°05'0 0.0
2018-Jun-16 14:48N 32°05' W 081°05'0 0.0
2018-Jun-16 14:27N 32°05' W 081°05'0 0.0
2018-Jun-16 14:00N 32°05' W 081°05'0 0.0
2018-Jun-16 13:28N 32°05' W 081°05'0 0.0
2018-Jun-16 12:41N 32°05' W 081°05'0 0.0
2018-Jun-16 11:14N 32°05' W 081°05'0 0.0
2018-Jun-16 10:44N 32°05' W 081°05'0 0.0
2018-Jun-16 10:21N 32°05' W 081°05'0 0.0
2018-Jun-16 10:00N 32°05' W 081°05'0 0.0
2018-Jun-16 09:30N 32°05' W 081°05'0 0.0
2018-Jun-16 08:57N 32°05' W 081°05'0 0.0
2018-Jun-16 08:24N 32°05' W 081°05'0 0.0
2018-Jun-16 07:07N 32°05' W 081°05'0 0.0
2018-Jun-16 06:58N 32°05' W 081°05'0 0.0
2018-Jun-16 06:28N 32°05' W 081°05'0 0.0
2018-Jun-16 05:58N 32°05' W 081°05'0 0.0
2018-Jun-16 05:28N 32°05' W 081°05'0 0.0
2018-Jun-16 04:49N 32°05' W 081°05'0 0.0
2018-Jun-16 00:32N 32°05' W 081°05'0 0.0
2018-Jun-16 00:29N 32°05' W 081°05'0 0.0
2018-Jun-15 23:53N 32°05' W 081°05'0 0.0
2018-Jun-15 23:14N 32°05' W 081°05'0 0.0
2018-Jun-15 20:36N 32°05' W 081°05'0 0.0
2018-Jun-15 19:49N 32°05' W 081°05'0 0.0
2018-Jun-15 17:24N 32°05' W 081°05'0 0.0
2018-Jun-15 17:00N 32°05' W 081°05'0 0.0
2018-Jun-15 16:27N 32°05' W 081°05'0 0.0
2018-Jun-15 15:51N 32°05' W 081°05'0 0.0
2018-Jun-15 15:30N 32°05' W 081°05'0 0.0
2018-Jun-15 14:21N 32°05' W 081°05'0 0.0
2018-Jun-15 14:00N 32°05' W 081°05'0 0.0
2018-Jun-15 13:30N 32°05' W 081°05'0 0.0
2018-Jun-15 12:50N 32°05' W 081°05'0 0.0
2018-Jun-15 12:01N 32°05' W 081°05'0 0.0
2018-Jun-15 11:55N 32°05' W 081°05'0 0.0
2018-Jun-15 10:49N 32°05' W 081°05'0 0.0
2018-Jun-15 10:19N 32°05' W 081°05'0 0.0
2018-Jun-15 09:49N 32°05' W 081°05'0 0.0
2018-Jun-15 09:16N 32°05' W 081°05'0 0.0
2018-Jun-15 08:31N 32°05' W 081°05'0 0.0
2018-Jun-15 08:10N 32°05' W 081°05'0 0.0
2018-Jun-15 05:04N 32°05' W 081°05'0 0.0
2018-Jun-15 04:46N 32°05' W 081°05'0 0.0
2018-Jun-15 03:19N 32°05' W 081°05'0 0.0
2018-Jun-15 02:32N 32°05' W 081°05'0 0.0
2018-Jun-15 02:29N 32°05' W 081°05'0 0.0
2018-Jun-15 00:28N 32°05' W 081°05'0 0.0
2018-Jun-14 21:30N 32°05' W 081°05'0 0.0
2018-Jun-14 20:56N 32°05' W 081°05'0 0.0
2018-Jun-14 20:27N 32°05' W 081°05'0 0.0
2018-Jun-14 20:00N 32°05' W 081°05'1 2.7
2018-Jun-14 19:29N 32°05' W 081°04'4 7.6
2018-Jun-14 19:01N 32°05' W 080°59'4 8.4
2018-Jun-14 18:30N 32°02' W 080°55'4 8.5
2018-Jun-14 18:00N 32°02' W 080°50'5 9.6
2018-Jun-14 17:30N 31°59' W 080°46'510.0
2018-Jun-14 17:00N 31°55' W 080°44'  

Dump ship's entire track history